Impacts TAF Board
For situational awareness. Not to be used for flight planning purposes.
IDs:

KPDX - Portland Intl Arpt, OR, US

Issued at 0520 UTC 03 Jul 2022
Updated at 0628 UTC 03 Jul 2022
Potential Impact None Slight Moderate High
Time0553Z 03/07Z 03/08Z 03/09Z 03/10Z 03/11Z 03/12Z 03/13Z 03/14Z 03/15Z 03/16Z 03/17Z 03/18Z 03/19Z>>
Type OBS PRVL PRVL PRVL PRVL PRVL PRVL PRVL PRVL PRVL PRVL PRVL PRVL PRVL
VIS 10 >6 >6 >6 >6 >6 >6 >6 >6 >6 >6 >6 >6 >6
CIG 39 40 40 25 25 25 19 19 19 19 22 22 22 22
Cover BKN BKN BKN OVC OVC OVC OVC OVC OVC OVC OVC OVC OVC OVC
FltCat VFR VFR VFR MVFR MVFR MVFR MVFR MVFR MVFR MVFR MVFR MVFR MVFR MVFR
WX -- -- -- -DZ -DZ -DZ -DZ -DZ -DZ -DZ -SHRA -SHRA -SHRA -SHRA
WDir 320 330 330 VRB VRB VRB VRB VRB VRB VRB VRB VRB VRB VRB
WSpd 6 7 7 4 4 4 3 3 3 3 4 4 4 4
WGst -- -- -- -- -- -- -- -- -- -- -- -- -- --
WSHgt -- -- -- -- -- -- -- -- -- -- -- -- -- --
WSDir -- -- -- -- -- -- -- -- -- -- -- -- -- --
WSSpd -- -- -- -- -- -- -- -- -- -- -- -- -- --
Raw TAF
KPDX 030520Z 0306/0406 33007KT P6SM SCT030 BKN040
  FM030900 VRB04KT P6SM -DZ OVC025
  FM031200 VRB03KT P6SM -DZ OVC019
  FM031600 VRB04KT P6SM -SHRA OVC022
  FM032200 VRB04KT P6SM BKN035
  FM040300 33005KT P6SM BKN045


Raw METAR
KPDX 030553Z 32006KT 10SM BKN039 17/12 A2994 RMK AO2 SLP138 T01720117 10222 20172 51010
KPDX 030453Z 31009KT 10SM BKN039 BKN180 18/11 A2994 RMK AO2 SLP137 T01780111
KPDX 030353Z 33008KT 10SM SCT031 BKN047 BKN190 19/12 A2993 RMK AO2 SLP134 T01890122

METAR Board
Radar Display
Forecast Discussion
For situational awareness. Not to be used for flight planning purposes.